sensor_id;sensor_type;location;lat;lon;timestamp;pressure;altitude;pressure_sealevel;temperature;humidity
19811;BME280;10065;49.632;8.346;2023-07-22T04:40:46;100440.31;;;19.30;64.60
19811;BME280;10065;49.632;8.346;2023-07-22T04:43:59;100441.75;;;19.26;64.24
19811;BME280;10065;49.632;8.346;2023-07-22T04:54:25;100453.38;;;19.53;63.15
19811;BME280;10065;49.632;8.346;2023-07-22T05:04:44;100453.81;;;19.50;63.86
19811;BME280;10065;49.632;8.346;2023-07-22T05:07:18;100452.97;;;19.49;63.86
19811;BME280;10065;49.632;8.346;2023-07-22T05:10:12;100458.56;;;19.48;63.63
19811;BME280;10065;49.632;8.346;2023-07-22T05:17:07;100462.25;;;19.47;63.77
19811;BME280;10065;49.632;8.346;2023-07-22T05:19:16;100459.97;;;19.44;63.91
19811;BME280;10065;49.632;8.346;2023-07-22T05:22:12;100460.84;;;19.51;64.29
19811;BME280;10065;49.632;8.346;2023-07-22T05:25:04;100455.47;;;19.51;64.28
19811;BME280;10065;49.632;8.346;2023-07-22T05:28:28;100460.84;;;19.64;63.16
19811;BME280;10065;49.632;8.346;2023-07-22T05:31:03;100463.72;;;19.76;63.39
19811;BME280;10065;49.632;8.346;2023-07-22T05:33:47;100458.13;;;19.84;64.30
19811;BME280;10065;49.632;8.346;2023-07-22T05:36:21;100460.19;;;19.88;64.38
19811;BME280;10065;49.632;8.346;2023-07-22T05:38:51;100469.72;;;19.91;63.49
19811;BME280;10065;49.632;8.346;2023-07-22T05:41:42;100461.03;;;19.96;62.70
19811;BME280;10065;49.632;8.346;2023-07-22T05:44:36;100470.94;;;20.02;61.96
19811;BME280;10065;49.632;8.346;2023-07-22T05:47:20;100467.63;;;20.13;62.31
19811;BME280;10065;49.632;8.346;2023-07-22T05:50:20;100477.34;;;20.07;62.48
19811;BME280;10065;49.632;8.346;2023-07-22T05:53:20;100475.31;;;20.03;61.42
19811;BME280;10065;49.632;8.346;2023-07-22T05:55:52;100470.53;;;19.98;61.54
19811;BME280;10065;49.632;8.346;2023-07-22T05:58:38;100482.13;;;20.12;60.70
19811;BME280;10065;49.632;8.346;2023-07-22T06:01:57;100476.47;;;20.33;59.57
19811;BME280;10065;49.632;8.346;2023-07-22T06:04:41;100474.63;;;20.40;59.83
19811;BME280;10065;49.632;8.346;2023-07-22T06:07:22;100481.47;;;20.36;59.79
19811;BME280;10065;49.632;8.346;2023-07-22T06:10:26;100480.84;;;20.34;59.38
19811;BME280;10065;49.632;8.346;2023-07-22T06:16:18;100482.25;;;20.43;59.40
19811;BME280;10065;49.632;8.346;2023-07-22T06:18:55;100490.53;;;20.55;59.53
19811;BME280;10065;49.632;8.346;2023-07-22T06:21:51;100488.66;;;20.55;59.14
19811;BME280;10065;49.632;8.346;2023-07-22T06:24:45;100498.00;;;20.46;60.02
19811;BME280;10065;49.632;8.346;2023-07-22T06:27:13;100489.72;;;20.48;60.41
19811;BME280;10065;49.632;8.346;2023-07-22T06:29:51;100497.19;;;20.46;60.56
19811;BME280;10065;49.632;8.346;2023-07-22T06:32:20;100496.53;;;20.57;60.82
19811;BME280;10065;49.632;8.346;2023-07-22T06:34:49;100501.28;;;20.61;60.99
19811;BME280;10065;49.632;8.346;2023-07-22T06:37:34;100488.78;;;20.74;61.40
19811;BME280;10065;49.632;8.346;2023-07-22T06:40:02;100499.13;;;20.83;61.18
19811;BME280;10065;49.632;8.346;2023-07-22T06:42:31;100497.44;;;20.89;61.01
19811;BME280;10065;49.632;8.346;2023-07-22T06:44:59;100499.72;;;20.92;61.35
19811;BME280;10065;49.632;8.346;2023-07-22T06:47:39;100494.69;;;21.02;61.49
19811;BME280;10065;49.632;8.346;2023-07-22T06:50:14;100493.19;;;21.06;62.31
19811;BME280;10065;49.632;8.346;2023-07-22T06:52:51;100499.25;;;20.95;62.46
19811;BME280;10065;49.632;8.346;2023-07-22T06:55:27;100499.50;;;20.87;63.03
19811;BME280;10065;49.632;8.346;2023-07-22T06:57:59;100497.19;;;20.97;62.85
19811;BME280;10065;49.632;8.346;2023-07-22T07:00:47;100504.91;;;20.87;63.14
19811;BME280;10065;49.632;8.346;2023-07-22T07:03:20;100507.84;;;20.79;63.86
19811;BME280;10065;49.632;8.346;2023-07-22T07:06:12;100507.78;;;20.92;64.13
19811;BME280;10065;49.632;8.346;2023-07-22T07:11:51;100507.09;;;21.03;63.71
19811;BME280;10065;49.632;8.346;2023-07-22T07:15:06;100504.75;;;21.13;63.73
19811;BME280;10065;49.632;8.346;2023-07-22T07:18:00;100502.25;;;21.25;63.97
19811;BME280;10065;49.632;8.346;2023-07-22T07:20:35;100500.53;;;21.30;64.68
19811;BME280;10065;49.632;8.346;2023-07-22T07:23:53;100500.06;;;21.40;64.38
19811;BME280;10065;49.632;8.346;2023-07-22T07:26:24;100501.44;;;21.49;63.58
19811;BME280;10065;49.632;8.346;2023-07-22T07:29:02;100497.50;;;21.52;62.99
19811;BME280;10065;49.632;8.346;2023-07-22T07:31:55;100509.28;;;21.26;63.94
19811;BME280;10065;49.632;8.346;2023-07-22T07:34:50;100513.88;;;21.25;64.06
19811;BME280;10065;49.632;8.346;2023-07-22T07:37:58;100512.19;;;21.24;64.87
19811;BME280;10065;49.632;8.346;2023-07-22T07:40:28;100503.03;;;21.32;64.65
19811;BME280;10065;49.632;8.346;2023-07-22T07:43:04;100505.41;;;21.47;63.78
19811;BME280;10065;49.632;8.346;2023-07-22T07:45:43;100507.16;;;21.34;63.95
19811;BME280;10065;49.632;8.346;2023-07-22T07:48:24;100509.16;;;21.46;63.64
19811;BME280;10065;49.632;8.346;2023-07-22T07:50:53;100512.25;;;21.49;63.70
19811;BME280;10065;49.632;8.346;2023-07-22T07:53:34;100509.50;;;21.56;62.33
19811;BME280;10065;49.632;8.346;2023-07-22T07:56:03;100517.78;;;21.61;61.69
19811;BME280;10065;49.632;8.346;2023-07-22T07:58:35;100512.72;;;21.71;59.60
19811;BME280;10065;49.632;8.346;2023-07-22T08:01:08;100511.50;;;21.67;59.51
19811;BME280;10065;49.632;8.346;2023-07-22T08:03:43;100515.22;;;21.66;60.20
19811;BME280;10065;49.632;8.346;2023-07-22T08:06:18;100518.13;;;21.71;60.65
19811;BME280;10065;49.632;8.346;2023-07-22T08:08:49;100513.50;;;21.78;60.16
19811;BME280;10065;49.632;8.346;2023-07-22T08:11:18;100514.09;;;21.80;59.80
19811;BME280;10065;49.632;8.346;2023-07-22T08:14:06;100507.53;;;21.94;59.59
19811;BME280;10065;49.632;8.346;2023-07-22T08:16:43;100514.47;;;22.08;58.58
19811;BME280;10065;49.632;8.346;2023-07-22T08:19:32;100513.75;;;22.20;57.84
19811;BME280;10065;49.632;8.346;2023-07-22T08:22:02;100505.06;;;22.36;57.67
19811;BME280;10065;49.632;8.346;2023-07-22T08:24:39;100507.41;;;22.50;58.10
19811;BME280;10065;49.632;8.346;2023-07-22T08:27:32;100518.78;;;22.77;56.25
19811;BME280;10065;49.632;8.346;2023-07-22T08:30:18;100508.06;;;23.01;55.14
19811;BME280;10065;49.632;8.346;2023-07-22T08:32:48;100507.03;;;23.13;54.92
19811;BME280;10065;49.632;8.346;2023-07-22T08:35:17;100512.06;;;23.40;52.74
19811;BME280;10065;49.632;8.346;2023-07-22T08:37:50;100506.53;;;23.35;52.83
19811;BME280;10065;49.632;8.346;2023-07-22T08:40:19;100506.66;;;23.40;53.48
19811;BME280;10065;49.632;8.346;2023-07-22T08:42:49;100505.59;;;23.41;53.51
19811;BME280;10065;49.632;8.346;2023-07-22T08:45:32;100494.41;;;23.55;53.74
19811;BME280;10065;49.632;8.346;2023-07-22T08:48:15;100506.53;;;23.76;53.18
19811;BME280;10065;49.632;8.346;2023-07-22T08:50:54;100490.56;;;23.98;51.80
19811;BME280;10065;49.632;8.346;2023-07-22T08:53:37;100498.31;;;24.06;51.08
19811;BME280;10065;49.632;8.346;2023-07-22T08:56:11;100499.84;;;24.02;50.56
19811;BME280;10065;49.632;8.346;2023-07-22T08:58:48;100500.66;;;24.02;50.81
19811;BME280;10065;49.632;8.346;2023-07-22T09:01:31;100497.97;;;24.14;50.57
19811;BME280;10065;49.632;8.346;2023-07-22T09:04:12;100498.47;;;24.34;50.20
19811;BME280;10065;49.632;8.346;2023-07-22T09:06:41;100498.88;;;24.55;49.10
19811;BME280;10065;49.632;8.346;2023-07-22T09:09:13;100493.44;;;24.66;48.61
19811;BME280;10065;49.632;8.346;2023-07-22T09:11:47;100482.88;;;24.82;48.37
19811;BME280;10065;49.632;8.346;2023-07-22T09:14:21;100485.13;;;24.96;48.13
19811;BME280;10065;49.632;8.346;2023-07-22T09:17:08;100473.00;;;25.16;47.46
19811;BME280;10065;49.632;8.346;2023-07-22T09:19:43;100472.13;;;25.27;46.54
19811;BME280;10065;49.632;8.346;2023-07-22T09:22:24;100464.81;;;25.44;46.38
19811;BME280;10065;49.632;8.346;2023-07-22T09:25:20;100471.00;;;25.56;45.76
19811;BME280;10065;49.632;8.346;2023-07-22T09:28:12;100463.34;;;25.70;45.51
19811;BME280;10065;49.632;8.346;2023-07-22T09:31:06;100460.81;;;25.80;44.78
19811;BME280;10065;49.632;8.346;2023-07-22T09:33:50;100460.25;;;25.61;44.16
19811;BME280;10065;49.632;8.346;2023-07-22T09:36:28;100469.63;;;25.25;43.49
19811;BME280;10065;49.632;8.346;2023-07-22T09:39:04;100459.16;;;25.00;44.47
19811;BME280;10065;49.632;8.346;2023-07-22T09:44:30;100459.09;;;25.12;44.12
19811;BME280;10065;49.632;8.346;2023-07-22T09:47:10;100458.88;;;25.14;43.46
19811;BME280;10065;49.632;8.346;2023-07-22T09:50:14;100462.38;;;24.86;44.00
19811;BME280;10065;49.632;8.346;2023-07-22T09:52:56;100452.09;;;24.59;44.73
19811;BME280;10065;49.632;8.346;2023-07-22T09:55:28;100457.31;;;24.49;45.00
19811;BME280;10065;49.632;8.346;2023-07-22T09:58:14;100451.75;;;24.56;44.84
19811;BME280;10065;49.632;8.346;2023-07-22T10:01:01;100450.19;;;24.71;44.12
19811;BME280;10065;49.632;8.346;2023-07-22T10:03:45;100440.69;;;24.86;44.18
19811;BME280;10065;49.632;8.346;2023-07-22T10:06:28;100431.19;;;25.00;44.31
19811;BME280;10065;49.632;8.346;2023-07-22T10:09:02;100432.19;;;24.94;43.82
19811;BME280;10065;49.632;8.346;2023-07-22T10:11:35;100419.38;;;24.78;44.24
19811;BME280;10065;49.632;8.346;2023-07-22T10:14:04;100429.78;;;24.69;44.15
19811;BME280;10065;49.632;8.346;2023-07-22T10:16:43;100432.66;;;24.62;44.65
19811;BME280;10065;49.632;8.346;2023-07-22T10:19:53;100426.78;;;24.54;45.16
19811;BME280;10065;49.632;8.346;2023-07-22T10:22:23;100427.56;;;24.54;44.43
19811;BME280;10065;49.632;8.346;2023-07-22T10:25:04;100431.16;;;24.43;44.52
19811;BME280;10065;49.632;8.346;2023-07-22T10:27:42;100426.34;;;24.33;44.84
19811;BME280;10065;49.632;8.346;2023-07-22T10:30:12;100418.56;;;24.37;45.12
19811;BME280;10065;49.632;8.346;2023-07-22T10:33:27;100426.81;;;24.30;45.17
19811;BME280;10065;49.632;8.346;2023-07-22T10:36:05;100426.34;;;24.33;44.73
19811;BME280;10065;49.632;8.346;2023-07-22T10:38:53;100421.28;;;24.14;44.77
19811;BME280;10065;49.632;8.346;2023-07-22T10:41:59;100414.59;;;23.93;45.41
19811;BME280;10065;49.632;8.346;2023-07-22T10:47:34;100415.78;;;23.97;45.75
19811;BME280;10065;49.632;8.346;2023-07-22T10:50:37;100408.00;;;24.00;45.72
19811;BME280;10065;49.632;8.346;2023-07-22T10:54:50;100414.38;;;23.94;45.16
19811;BME280;10065;49.632;8.346;2023-07-22T10:57:54;100412.00;;;23.98;44.66
19811;BME280;10065;49.632;8.346;2023-07-22T11:00:29;100408.13;;;23.94;44.37
19811;BME280;10065;49.632;8.346;2023-07-22T11:03:30;100414.25;;;23.89;43.60
19811;BME280;10065;49.632;8.346;2023-07-22T11:09:38;100411.78;;;23.65;44.76
19811;BME280;10065;49.632;8.346;2023-07-22T11:12:19;100408.75;;;23.73;45.07
19811;BME280;10065;49.632;8.346;2023-07-22T11:15:18;100413.16;;;24.02;43.99
19811;BME280;10065;49.632;8.346;2023-07-22T11:21:36;100397.38;;;24.34;40.77
19811;BME280;10065;49.632;8.346;2023-07-22T11:24:07;100398.97;;;24.47;40.50
19811;BME280;10065;49.632;8.346;2023-07-22T11:27:22;100392.03;;;24.79;40.30
19811;BME280;10065;49.632;8.346;2023-07-22T11:30:06;100395.63;;;24.85;39.87
19811;BME280;10065;49.632;8.346;2023-07-22T11:32:47;100385.47;;;24.92;39.57
19811;BME280;10065;49.632;8.346;2023-07-22T11:35:42;100378.59;;;25.01;38.85
19811;BME280;10065;49.632;8.346;2023-07-22T11:38:13;100378.53;;;25.29;38.42
19811;BME280;10065;49.632;8.346;2023-07-22T11:40:41;100373.00;;;25.74;38.78
19811;BME280;10065;49.632;8.346;2023-07-22T11:43:10;100367.16;;;26.04;37.20
19811;BME280;10065;49.632;8.346;2023-07-22T11:45:52;100362.34;;;26.28;36.25
19811;BME280;10065;49.632;8.346;2023-07-22T11:48:29;100366.91;;;26.49;36.58
19811;BME280;10065;49.632;8.346;2023-07-22T11:54:10;100365.63;;;26.57;36.72
19811;BME280;10065;49.632;8.346;2023-07-22T11:56:39;100360.81;;;26.37;36.51
19811;BME280;10065;49.632;8.346;2023-07-22T11:59:37;100355.91;;;26.17;36.33
19811;BME280;10065;49.632;8.346;2023-07-22T12:02:06;100354.09;;;26.01;36.35
19811;BME280;10065;49.632;8.346;2023-07-22T12:08:44;100347.25;;;25.99;36.18
19811;BME280;10065;49.632;8.346;2023-07-22T12:11:21;100348.34;;;26.19;35.84
19811;BME280;10065;49.632;8.346;2023-07-22T12:14:08;100340.06;;;26.31;36.33
19811;BME280;10065;49.632;8.346;2023-07-22T12:17:08;100331.47;;;26.39;35.65
19811;BME280;10065;49.632;8.346;2023-07-22T12:19:53;100328.50;;;26.41;35.49
19811;BME280;10065;49.632;8.346;2023-07-22T12:22:51;100325.97;;;26.34;35.39
19811;BME280;10065;49.632;8.346;2023-07-22T12:26:05;100332.34;;;26.23;34.82
19811;BME280;10065;49.632;8.346;2023-07-22T12:28:34;100327.28;;;26.32;34.74
19811;BME280;10065;49.632;8.346;2023-07-22T12:31:12;100324.97;;;26.18;34.50
19811;BME280;10065;49.632;8.346;2023-07-22T12:33:52;100317.09;;;26.22;34.87
19811;BME280;10065;49.632;8.346;2023-07-22T12:36:26;100316.03;;;26.23;34.93
19811;BME280;10065;49.632;8.346;2023-07-22T12:39:07;100322.69;;;26.32;34.06
19811;BME280;10065;49.632;8.346;2023-07-22T12:41:43;100317.03;;;26.39;34.26
19811;BME280;10065;49.632;8.346;2023-07-22T12:44:17;100316.13;;;26.28;34.75
19811;BME280;10065;49.632;8.346;2023-07-22T12:46:58;100314.91;;;26.19;34.66
19811;BME280;10065;49.632;8.346;2023-07-22T12:53:28;100310.25;;;25.93;34.23
19811;BME280;10065;49.632;8.346;2023-07-22T12:56:14;100311.31;;;25.92;34.62
19811;BME280;10065;49.632;8.346;2023-07-22T12:59:09;100315.47;;;25.77;34.88
19811;BME280;10065;49.632;8.346;2023-07-22T13:02:15;100317.38;;;25.77;35.15
19811;BME280;10065;49.632;8.346;2023-07-22T13:04:45;100310.69;;;25.84;35.30
19811;BME280;10065;49.632;8.346;2023-07-22T13:07:18;100309.34;;;25.87;35.54
19811;BME280;10065;49.632;8.346;2023-07-22T13:10:14;100289.50;;;25.86;35.65
19811;BME280;10065;49.632;8.346;2023-07-22T13:12:53;100290.22;;;25.99;35.22
19811;BME280;10065;49.632;8.346;2023-07-22T13:15:25;100302.78;;;26.05;35.18
19811;BME280;10065;49.632;8.346;2023-07-22T13:17:53;100301.81;;;26.16;34.97
19811;BME280;10065;49.632;8.346;2023-07-22T13:24:08;100294.81;;;26.20;34.90
19811;BME280;10065;49.632;8.346;2023-07-22T13:26:40;100297.81;;;26.23;34.88
19811;BME280;10065;49.632;8.346;2023-07-22T13:29:12;100304.72;;;26.31;34.97
19811;BME280;10065;49.632;8.346;2023-07-22T13:31:41;100308.09;;;26.38;34.75
19811;BME280;10065;49.632;8.346;2023-07-22T13:34:12;100299.41;;;26.41;34.44
19811;BME280;10065;49.632;8.346;2023-07-22T13:36:47;100293.22;;;26.46;34.53
19811;BME280;10065;49.632;8.346;2023-07-22T13:39:19;100289.50;;;26.57;34.81
19811;BME280;10065;49.632;8.346;2023-07-22T13:41:49;100297.94;;;26.55;35.02
19811;BME280;10065;49.632;8.346;2023-07-22T13:44:20;100280.97;;;26.48;34.85
19811;BME280;10065;49.632;8.346;2023-07-22T13:46:49;100292.50;;;26.55;34.06
19811;BME280;10065;49.632;8.346;2023-07-22T13:49:23;100294.03;;;26.73;34.15
19811;BME280;10065;49.632;8.346;2023-07-22T13:52:02;100283.44;;;26.77;33.92
19811;BME280;10065;49.632;8.346;2023-07-22T13:54:32;100282.25;;;26.68;34.12
19811;BME280;10065;49.632;8.346;2023-07-22T13:57:09;100290.19;;;26.74;34.35
19811;BME280;10065;49.632;8.346;2023-07-22T13:59:38;100288.03;;;26.76;34.31
19811;BME280;10065;49.632;8.346;2023-07-22T14:02:11;100283.91;;;26.69;34.80
19811;BME280;10065;49.632;8.346;2023-07-22T14:04:41;100277.91;;;26.67;34.76
19811;BME280;10065;49.632;8.346;2023-07-22T14:07:12;100273.00;;;26.64;34.16
19811;BME280;10065;49.632;8.346;2023-07-22T14:09:45;100274.00;;;26.57;34.19
19811;BME280;10065;49.632;8.346;2023-07-22T14:12:14;100274.22;;;26.51;34.04
19811;BME280;10065;49.632;8.346;2023-07-22T14:14:49;100276.09;;;26.45;33.61
19811;BME280;10065;49.632;8.346;2023-07-22T14:17:18;100269.00;;;26.44;33.50
19811;BME280;10065;49.632;8.346;2023-07-22T14:19:50;100269.00;;;26.44;33.48
19811;BME280;10065;49.632;8.346;2023-07-22T14:22:22;100271.47;;;26.46;33.62
19811;BME280;10065;49.632;8.346;2023-07-22T14:24:53;100268.22;;;26.49;33.47
19811;BME280;10065;49.632;8.346;2023-07-22T14:27:21;100270.03;;;26.38;33.39
19811;BME280;10065;49.632;8.346;2023-07-22T14:29:52;100274.00;;;26.31;33.45
19811;BME280;10065;49.632;8.346;2023-07-22T14:32:24;100262.03;;;26.27;33.63
19811;BME280;10065;49.632;8.346;2023-07-22T14:34:52;100256.25;;;26.23;33.67
19811;BME280;10065;49.632;8.346;2023-07-22T14:37:27;100264.84;;;26.15;33.81
19811;BME280;10065;49.632;8.346;2023-07-22T14:40:08;100263.72;;;26.11;33.47
19811;BME280;10065;49.632;8.346;2023-07-22T14:42:37;100260.94;;;26.06;33.32
19811;BME280;10065;49.632;8.346;2023-07-22T14:45:08;100252.34;;;26.14;33.20
19811;BME280;10065;49.632;8.346;2023-07-22T14:47:37;100247.47;;;26.16;33.45
19811;BME280;10065;49.632;8.346;2023-07-22T14:50:06;100251.34;;;26.20;33.34
19811;BME280;10065;49.632;8.346;2023-07-22T14:52:34;100245.25;;;26.13;33.02
19811;BME280;10065;49.632;8.346;2023-07-22T14:55:06;100249.06;;;26.12;33.33
19811;BME280;10065;49.632;8.346;2023-07-22T14:57:34;100247.00;;;26.24;33.39
19811;BME280;10065;49.632;8.346;2023-07-22T15:00:03;100243.81;;;26.27;33.54
19811;BME280;10065;49.632;8.346;2023-07-22T15:02:35;100244.91;;;26.26;33.39
19811;BME280;10065;49.632;8.346;2023-07-22T15:05:04;100242.75;;;26.28;33.18
19811;BME280;10065;49.632;8.346;2023-07-22T15:07:41;100242.75;;;26.28;33.41
19811;BME280;10065;49.632;8.346;2023-07-22T15:10:15;100240.56;;;26.30;33.28
19811;BME280;10065;49.632;8.346;2023-07-22T15:12:43;100239.66;;;26.19;33.17
19811;BME280;10065;49.632;8.346;2023-07-22T15:15:12;100242.00;;;26.11;33.24
19811;BME280;10065;49.632;8.346;2023-07-22T15:17:42;100236.56;;;26.11;33.25
19811;BME280;10065;49.632;8.346;2023-07-22T15:20:15;100237.06;;;26.08;33.07
19811;BME280;10065;49.632;8.346;2023-07-22T15:22:43;100255.00;;;26.09;33.43
19811;BME280;10065;49.632;8.346;2023-07-22T15:25:13;100246.28;;;26.07;33.08
19811;BME280;10065;49.632;8.346;2023-07-22T15:27:45;100250.66;;;26.08;32.73
19811;BME280;10065;49.632;8.346;2023-07-22T15:30:18;100242.50;;;26.08;32.48
19811;BME280;10065;49.632;8.346;2023-07-22T15:32:48;100250.66;;;26.08;32.60
19811;BME280;10065;49.632;8.346;2023-07-22T15:35:20;100245.72;;;26.05;32.82
19811;BME280;10065;49.632;8.346;2023-07-22T15:37:53;100239.47;;;26.04;32.99
19811;BME280;10065;49.632;8.346;2023-07-22T15:40:23;100241.34;;;26.04;32.96
19811;BME280;10065;49.632;8.346;2023-07-22T15:42:52;100237.56;;;26.05;32.91
19811;BME280;10065;49.632;8.346;2023-07-22T15:45:22;100238.09;;;26.02;32.84
19811;BME280;10065;49.632;8.346;2023-07-22T15:47:53;100233.78;;;26.06;32.79
19811;BME280;10065;49.632;8.346;2023-07-22T15:50:25;100227.00;;;26.08;32.97
19811;BME280;10065;49.632;8.346;2023-07-22T15:52:58;100222.34;;;26.04;33.06
19811;BME280;10065;49.632;8.346;2023-07-22T15:55:30;100223.94;;;26.00;32.59
19811;BME280;10065;49.632;8.346;2023-07-22T15:58:10;100222.28;;;25.99;32.73
19811;BME280;10065;49.632;8.346;2023-07-22T16:00:38;100220.66;;;25.98;32.72
19811;BME280;10065;49.632;8.346;2023-07-22T16:03:08;100222.75;;;25.91;32.97
19811;BME280;10065;49.632;8.346;2023-07-22T16:05:41;100224.38;;;25.92;33.16
19811;BME280;10065;49.632;8.346;2023-07-22T16:08:12;100219.53;;;25.94;33.30
19811;BME280;10065;49.632;8.346;2023-07-22T16:10:44;100209.88;;;26.08;33.16
19811;BME280;10065;49.632;8.346;2023-07-22T16:13:40;100202.25;;;26.05;33.08
19811;BME280;10065;49.632;8.346;2023-07-22T16:16:09;100201.50;;;26.09;32.80
19811;BME280;10065;49.632;8.346;2023-07-22T16:18:45;100198.53;;;26.11;32.97
19811;BME280;10065;49.632;8.346;2023-07-22T16:21:14;100197.94;;;26.09;35.62
19811;BME280;10065;49.632;8.346;2023-07-22T16:23:45;100204.72;;;26.06;34.65
19811;BME280;10065;49.632;8.346;2023-07-22T16:26:24;100207.75;;;26.10;34.70
19811;BME280;10065;49.632;8.346;2023-07-22T16:29:01;100197.88;;;26.04;32.92
19811;BME280;10065;49.632;8.346;2023-07-22T16:31:34;100198.69;;;26.04;32.96
19811;BME280;10065;49.632;8.346;2023-07-22T16:34:16;100203.28;;;25.99;33.93
19811;BME280;10065;49.632;8.346;2023-07-22T16:36:45;100208.13;;;25.97;33.48
19811;BME280;10065;49.632;8.346;2023-07-22T16:39:14;100197.28;;;25.97;33.69
19811;BME280;10065;49.632;8.346;2023-07-22T16:41:44;100204.34;;;25.98;33.69
19811;BME280;10065;49.632;8.346;2023-07-22T16:44:14;100204.09;;;25.99;33.17
19811;BME280;10065;49.632;8.346;2023-07-22T16:46:44;100200.56;;;25.99;33.06
19811;BME280;10065;49.632;8.346;2023-07-22T16:49:14;100193.22;;;25.99;33.25
19811;BME280;10065;49.632;8.346;2023-07-22T16:51:44;100194.38;;;26.03;33.02
19811;BME280;10065;49.632;8.346;2023-07-22T16:54:14;100197.09;;;26.03;33.01
19811;BME280;10065;49.632;8.346;2023-07-22T16:56:47;100192.44;;;26.04;33.03
19811;BME280;10065;49.632;8.346;2023-07-22T16:59:19;100194.38;;;26.03;33.08
19811;BME280;10065;49.632;8.346;2023-07-22T17:01:47;100189.22;;;26.07;33.23
19811;BME280;10065;49.632;8.346;2023-07-22T17:04:16;100191.94;;;26.07;33.08
19811;BME280;10065;49.632;8.346;2023-07-22T17:06:44;100189.47;;;26.05;33.17
19811;BME280;10065;49.632;8.346;2023-07-22T17:09:12;100183.22;;;26.05;33.25
19811;BME280;10065;49.632;8.346;2023-07-22T17:11:48;100185.94;;;26.05;33.13
19811;BME280;10065;49.632;8.346;2023-07-22T17:14:16;100185.41;;;26.03;32.72
19811;BME280;10065;49.632;8.346;2023-07-22T17:16:45;100186.94;;;25.94;32.30
19811;BME280;10065;49.632;8.346;2023-07-22T17:19:14;100182.56;;;25.93;32.59
19811;BME280;10065;49.632;8.346;2023-07-22T17:21:45;100190.97;;;25.91;32.33
19811;BME280;10065;49.632;8.346;2023-07-22T17:24:14;100187.44;;;25.91;32.56
19811;BME280;10065;49.632;8.346;2023-07-22T17:26:42;100184.97;;;25.89;32.41
19811;BME280;10065;49.632;8.346;2023-07-22T17:29:15;100179.25;;;25.85;32.27
19811;BME280;10065;49.632;8.346;2023-07-22T17:31:43;100180.56;;;25.83;32.23
19811;BME280;10065;49.632;8.346;2023-07-22T17:34:14;100178.69;;;25.83;32.49
19811;BME280;10065;49.632;8.346;2023-07-22T17:36:42;100184.59;;;25.80;32.72
19811;BME280;10065;49.632;8.346;2023-07-22T17:39:10;100185.69;;;25.79;32.65
19811;BME280;10065;49.632;8.346;2023-07-22T17:41:42;100179.75;;;25.82;32.75
19811;BME280;10065;49.632;8.346;2023-07-22T17:44:12;100183.53;;;25.81;32.70
19811;BME280;10065;49.632;8.346;2023-07-22T17:46:46;100180.19;;;25.74;32.84
19811;BME280;10065;49.632;8.346;2023-07-22T17:49:17;100169.25;;;25.69;32.86
19811;BME280;10065;49.632;8.346;2023-07-22T17:51:45;100173.06;;;25.68;33.01
19811;BME280;10065;49.632;8.346;2023-07-22T17:54:13;100163.53;;;25.66;32.97
19811;BME280;10065;49.632;8.346;2023-07-22T17:56:44;100174.06;;;25.62;33.10
19811;BME280;10065;49.632;8.346;2023-07-22T17:59:14;100181.31;;;25.57;33.21
19811;BME280;10065;49.632;8.346;2023-07-22T18:01:46;100173.44;;;25.55;33.25
19811;BME280;10065;49.632;8.346;2023-07-22T18:04:15;100169.06;;;25.54;33.34
19811;BME280;10065;49.632;8.346;2023-07-22T18:06:44;100167.66;;;25.52;33.67
19811;BME280;10065;49.632;8.346;2023-07-22T18:09:15;100165.72;;;25.47;33.69
19811;BME280;10065;49.632;8.346;2023-07-22T18:11:43;100160.78;;;25.44;33.61
19811;BME280;10065;49.632;8.346;2023-07-22T18:14:16;100163.50;;;25.44;33.56
19811;BME280;10065;49.632;8.346;2023-07-22T18:16:44;100160.78;;;25.44;33.51
19811;BME280;10065;49.632;8.346;2023-07-22T18:19:12;100161.63;;;25.44;33.57
19811;BME280;10065;49.632;8.346;2023-07-22T18:21:41;100162.16;;;25.41;33.68
19811;BME280;10065;49.632;8.346;2023-07-22T18:24:09;100164.53;;;25.38;33.50
19811;BME280;10065;49.632;8.346;2023-07-22T18:26:38;100161.75;;;25.33;33.86
19811;BME280;10065;49.632;8.346;2023-07-22T18:32:04;100174.19;;;25.29;33.96
19811;BME280;10065;49.632;8.346;2023-07-22T18:34:33;100167.88;;;25.23;34.00
19811;BME280;10065;49.632;8.346;2023-07-22T18:37:01;100167.31;;;25.21;34.30
19811;BME280;10065;49.632;8.346;2023-07-22T18:39:30;100169.69;;;25.18;34.43
19811;BME280;10065;49.632;8.346;2023-07-22T18:42:01;100165.59;;;25.15;34.47
19811;BME280;10065;49.632;8.346;2023-07-22T18:44:40;100165.28;;;25.11;34.58
19811;BME280;10065;49.632;8.346;2023-07-22T18:47:10;100166.84;;;25.07;35.21
19811;BME280;10065;49.632;8.346;2023-07-22T18:49:43;100172.78;;;25.04;35.20
19811;BME280;10065;49.632;8.346;2023-07-22T18:52:12;100175.41;;;24.99;35.63
19811;BME280;10065;49.632;8.346;2023-07-22T18:54:52;100175.09;;;24.96;35.85
19811;BME280;10065;49.632;8.346;2023-07-22T18:57:20;100174.97;;;24.91;35.33
19811;BME280;10065;49.632;8.346;2023-07-22T18:59:54;100171.44;;;24.90;35.32
19811;BME280;10065;49.632;8.346;2023-07-22T19:02:23;100182.28;;;24.90;35.17
19811;BME280;10065;49.632;8.346;2023-07-22T19:04:51;100168.72;;;24.90;35.07
19811;BME280;10065;49.632;8.346;2023-07-22T19:30:25;100191.50;;;24.56;36.41
19811;BME280;10065;49.632;8.346;2023-07-22T19:32:53;100196.88;;;24.51;36.34
19811;BME280;10065;49.632;8.346;2023-07-22T19:35:27;100185.69;;;24.47;36.48
19811;BME280;10065;49.632;8.346;2023-07-22T19:37:55;100198.91;;;24.44;36.49
19811;BME280;10065;49.632;8.346;2023-07-22T19:40:27;100201.28;;;24.40;36.71
19811;BME280;10065;49.632;8.346;2023-07-22T19:42:57;100196.34;;;24.37;37.08